Hauptseite
METAR-TAF:

METAR-TAF

Flughäfen :

Flughafen Auckland

Auckland, Neuseeland

Breite: 37-01S, Länge: 174-48E, Höhe: 7 m

Beobachtung

Neuester Wetterbericht von vor 39 Minuten, um 08:30 UTC
Wind 9 kt aus Südwest
Temperatur 13°C
Luftfeuchtigkeit 72%
Luftdruck 1018 hPa
Sichtweite 10 km oder mehr

METAR: NZAA 240830Z AUTO 22009KT 9999 OVC043/// 13/08 Q1018

Zeit: 21:09 (09:09 UTC)

Prognose

Neuester Wetterbericht von vor 1 Stunde und 0 Minuten, um 08:09 UTC
Gültige Prognose vom 24 um 09 UTC bis 25 um 12 UTC
Wind 12 kt aus Südwest
Sichtweite 10 km oder mehr
Aufgelockert bewölkt in der Höhe von 3000 ft
Regenschauer,

TAF: NZAA 240809Z 2409/2512 22012KT 9999 -SHRA SCT030

Wetterbeobachtungen und Prognosen von mehr als 4000 Flughäfen (METAR und TAF Bericht).

Die verfügbaren Stationen werden durch gelbe und rote Markierungen auf der Karte dargestellt.

Führen Sie die Maus auf sie, um den Namen der Station zu sehen.

Darauf klicken, um die Beobachtung von Wetterbeobachtungen und Prognosen zu sehen.

Um die Karte zu ändern : klicken Sie auf den grünen Tasten mit einem schwarzen Kreuz Zum Vergrößern, auf den grünen Button mit einem Gedankenstrich zu verkleinern, oder auf die grünen Pfeile für benachbarte Karten.


METAR-TAF: